createdAt,value
2017-01-01T00:00:59.612Z,75.53
2017-01-01T00:02:04.805Z,76
2017-01-01T00:03:09.994Z,75.62
2017-01-01T00:04:16.175Z,76.44
2017-01-01T00:05:21.366Z,76.1
2017-01-01T00:06:27.534Z,76.25
2017-01-01T00:07:31.732Z,76.48
2017-01-01T00:08:37.903Z,77.01
2017-01-01T00:09:43.081Z,76.82
2017-01-01T00:10:49.256Z,76.63
2017-01-01T00:11:54.479Z,76.72
2017-01-01T00:12:59.644Z,76.72
2017-01-01T00:14:05.808Z,76.53
2017-01-01T00:15:11.977Z,76.63
2017-01-01T00:16:17.164Z,76.91
2017-01-01T00:17:21.446Z,76.63
2017-01-01T00:18:24.721Z,77.2
2017-01-01T00:19:29.917Z,77.39
2017-01-01T00:20:36.078Z,77.39
2017-01-01T00:21:41.315Z,77.39
2017-01-01T00:22:47.490Z,77.29
2017-01-01T00:23:52.688Z,77.67
2017-01-01T00:24:58.852Z,77.48
2017-01-01T00:26:03.048Z,78.33
2017-01-01T00:27:08.237Z,78.05
2017-01-01T00:28:13.491Z,78.42
2017-01-01T00:29:18.690Z,78.42
2017-01-01T00:30:23.014Z,78.05
2017-01-01T00:31:28.243Z,78.61
2017-01-01T00:32:33.401Z,78.8
2017-01-01T00:33:39.574Z,78.9
2017-01-01T00:34:44.796Z,78.99
2017-01-01T00:35:49.967Z,79.18
2017-01-01T00:36:56.149Z,79.18
2017-01-01T00:38:02.312Z,79.18
2017-01-01T00:39:08.478Z,79.09
2017-01-01T00:40:14.639Z,79.37
2017-01-01T00:41:18.839Z,79.47
2017-01-01T00:42:23.083Z,79.09
2017-01-01T00:44:35.418Z,79.75
2017-01-01T00:45:40.609Z,79.75
2017-01-01T00:46:45.801Z,79.85
2017-01-01T00:47:51.964Z,80.13
2017-01-01T00:48:57.164Z,80.22
2017-01-01T00:50:00.429Z,79.94
2017-01-01T00:51:05.633Z,79.94
2017-01-01T00:52:11.795Z,80.51
2017-01-01T00:53:18.016Z,80.6
2017-01-01T00:54:23.207Z,80.69
2017-01-01T00:55:29.381Z,80.69
2017-01-01T00:56:35.591Z,81.55
2017-01-01T00:57:41.692Z,81.26
2017-01-01T00:58:47.857Z,81.64
2017-01-01T00:59:53.116Z,81.26
2017-01-01T01:00:58.340Z,81.45
2017-01-01T01:02:03.717Z,81.45
2017-01-01T01:03:08.908Z,81.26
2017-01-01T01:04:14.106Z,81.26
2017-01-01T01:05:19.298Z,81.45
2017-01-01T01:06:24.496Z,81.93
2017-01-01T01:07:29.665Z,81.93
2017-01-01T01:08:34.835Z,81.74
2017-01-01T01:09:39.843Z,81.74
2017-01-01T01:10:44.981Z,82.12
2017-01-01T01:11:50.168Z,81.64
2017-01-01T01:12:55.364Z,82.31
2017-01-01T01:14:00.558Z,82.31
2017-01-01T01:15:04.759Z,82.68
2017-01-01T01:16:09.130Z,82.68
2017-01-01T01:17:13.297Z,82.5
2017-01-01T01:18:17.572Z,82.78
2017-01-01T01:19:23.736Z,82.5
2017-01-01T01:20:29.953Z,82.78
2017-01-01T01:21:35.141Z,82.5
2017-01-01T01:22:41.298Z,82.59
2017-01-01T01:23:47.458Z,82.5
2017-01-01T01:24:52.651Z,82.5
2017-01-01T01:25:57.850Z,82.83
2017-01-01T01:27:04.023Z,82.54
2017-01-01T01:28:10.184Z,83.25
2017-01-01T01:29:15.377Z,83.06
2017-01-01T01:30:21.540Z,82.73
2017-01-01T01:31:27.756Z,82.97
2017-01-01T01:32:33.910Z,82.92
2017-01-01T01:33:39.102Z,82.73
2017-01-01T01:34:45.265Z,83.06
2017-01-01T01:35:51.431Z,82.21
2017-01-01T01:36:56.629Z,82.83
2017-01-01T01:38:01.898Z,82.54
2017-01-01T01:39:08.030Z,82.73
2017-01-01T01:40:13.226Z,82.73
2017-01-01T01:41:19.388Z,82.64
2017-01-01T01:42:25.553Z,82.64
2017-01-01T01:43:30.754Z,81.98
2017-01-01T01:44:35.954Z,82.07
2017-01-01T01:45:41.131Z,81.98
2017-01-01T01:46:47.292Z,81.98
2017-01-01T01:47:52.458Z,81.88
2017-01-01T01:48:58.620Z,81.6
2017-01-01T01:50:03.808Z,81.6
2017-01-01T01:51:09.003Z,82.17
2017-01-01T01:52:13.244Z,81.88
2017-01-01T01:53:19.397Z,82.07
2017-01-01T01:54:25.560Z,81.98
2017-01-01T01:55:29.794Z,82.07
2017-01-01T01:56:34.985Z,81.88
2017-01-01T01:57:39.227Z,82.26
2017-01-01T01:58:45.402Z,82.17
2017-01-01T01:59:50.568Z,81.7
2017-01-01T02:00:55.761Z,81.79
2017-01-01T02:02:01.972Z,81.79
2017-01-01T02:03:07.157Z,81.7
2017-01-01T02:04:13.334Z,81.22
2017-01-01T02:05:18.520Z,81.22
2017-01-01T02:06:22.715Z,81.13
2017-01-01T02:07:26.947Z,81.22
2017-01-01T02:08:32.142Z,81.88
2017-01-01T02:09:37.342Z,81.79
2017-01-01T02:10:42.511Z,82.17
2017-01-01T02:11:47.701Z,82.07
2017-01-01T02:12:52.896Z,81.79
2017-01-01T02:13:59.114Z,82.07
2017-01-01T02:15:05.274Z,82.64
2017-01-01T02:16:11.496Z,82.64
2017-01-01T02:17:16.688Z,82.54
2017-01-01T02:18:22.854Z,82.17
2017-01-01T02:19:29.021Z,82.64
2017-01-01T02:20:35.254Z,82.64
2017-01-01T02:21:40.524Z,82.64
2017-01-01T02:22:46.685Z,82.17
2017-01-01T02:23:52.847Z,82.07
2017-01-01T02:24:59.011Z,82.07
2017-01-01T02:26:05.245Z,81.98
2017-01-01T02:27:11.408Z,82.35
2017-01-01T02:28:17.564Z,82.07
2017-01-01T02:29:22.769Z,82.73
2017-01-01T02:30:28.937Z,82.92
2017-01-01T02:31:35.109Z,82.64
2017-01-01T02:32:40.279Z,82.64
2017-01-01T02:33:45.464Z,82.26
2017-01-01T02:34:50.703Z,82.26
2017-01-01T02:35:55.942Z,82.26
2017-01-01T02:37:02.080Z,82.26
2017-01-01T02:38:07.266Z,82.26
2017-01-01T02:39:11.504Z,81.7
2017-01-01T02:40:16.698Z,81.79
2017-01-01T02:41:22.860Z,81.79
2017-01-01T02:42:28.055Z,81.88
2017-01-01T02:43:33.235Z,81.6
2017-01-01T02:44:39.403Z,81.98
2017-01-01T02:45:45.595Z,81.79
2017-01-01T02:46:50.789Z,81.79
2017-01-01T02:47:56.948Z,81.6
2017-01-01T02:49:02.146Z,81.79
2017-01-01T02:50:08.308Z,82.07
2017-01-01T02:51:13.491Z,81.41
2017-01-01T02:52:18.710Z,81.51
2017-01-01T02:53:24.868Z,81.22
2017-01-01T02:54:31.071Z,81.22
2017-01-01T02:55:36.231Z,81.6
2017-01-01T02:56:42.402Z,81.51
2017-01-01T02:57:47.595Z,81.45
2017-01-01T02:58:53.759Z,81.41
2017-01-01T02:59:58.954Z,81.41
2017-01-01T03:01:03.219Z,81.26
2017-01-01T03:02:08.374Z,81.6
2017-01-01T03:03:13.549Z,81.22
2017-01-01T03:04:17.775Z,81.03
2017-01-01T03:05:22.966Z,82.12
2017-01-01T03:06:29.135Z,81.79
2017-01-01T03:07:34.331Z,82.17
2017-01-01T03:08:39.528Z,82.07
2017-01-01T03:09:45.692Z,82.07
2017-01-01T03:10:51.100Z,81.79
2017-01-01T03:11:55.339Z,81.83
2017-01-01T03:13:00.566Z,81.98
2017-01-01T03:14:05.805Z,82.12
2017-01-01T03:15:10.984Z,81.88
2017-01-01T03:16:16.181Z,82.07
2017-01-01T03:17:22.351Z,81.79
2017-01-01T03:18:28.524Z,81.88
2017-01-01T03:19:34.594Z,81.88
2017-01-01T03:20:39.797Z,81.88
2017-01-01T03:21:43.996Z,81.88
2017-01-01T03:22:50.150Z,81.88
2017-01-01T03:23:55.327Z,81.79
2017-01-01T03:25:01.494Z,82.26
2017-01-01T03:26:06.661Z,81.79
2017-01-01T03:27:12.815Z,82.35
2017-01-01T03:28:18.094Z,82.17
2017-01-01T03:29:22.292Z,81.79
2017-01-01T03:30:28.453Z,82.07
2017-01-01T03:31:33.743Z,81.7
2017-01-01T03:32:40.005Z,81.93
2017-01-01T03:33:44.212Z,81.79
2017-01-01T03:34:48.438Z,81.88
2017-01-01T03:35:54.601Z,81.79
2017-01-01T03:36:59.906Z,82.07
2017-01-01T03:38:04.218Z,81.32
2017-01-01T03:39:10.384Z,81.22
2017-01-01T03:40:15.623Z,81.13
2017-01-01T03:41:20.842Z,81.22
2017-01-01T03:42:26.974Z,81.22
2017-01-01T03:43:30.214Z,82.07
2017-01-01T03:44:36.381Z,81.88
2017-01-01T03:45:39.968Z,81.79
2017-01-01T03:46:46.132Z,81.22
2017-01-01T03:47:52.299Z,81.22
2017-01-01T03:48:57.604Z,81.51
2017-01-01T03:50:02.406Z,81.51
2017-01-01T03:51:08.568Z,81.41
2017-01-01T03:52:13.765Z,81.32
2017-01-01T03:53:19.986Z,81.88
2017-01-01T03:54:24.197Z,81.7
2017-01-01T03:55:29.362Z,81.88
2017-01-01T03:56:35.530Z,81.98
2017-01-01T03:57:41.763Z,81.79
2017-01-01T03:58:46.969Z,82.26
2017-01-01T03:59:53.127Z,81.98
2017-01-01T04:00:59.290Z,82.92
2017-01-01T04:02:05.446Z,82.92
2017-01-01T04:03:10.639Z,82.45
2017-01-01T04:04:15.828Z,82.73
2017-01-01T04:05:22.041Z,82.73
2017-01-01T04:06:28.210Z,82.54
2017-01-01T04:07:33.401Z,82.54
2017-01-01T04:08:38.595Z,82.73
2017-01-01T04:09:44.765Z,82.73
2017-01-01T04:10:50.944Z,82.92
2017-01-01T04:11:55.189Z,83.11
2017-01-01T04:12:59.540Z,82.64
2017-01-01T04:14:05.340Z,82.73
2017-01-01T04:15:10.577Z,82.73
2017-01-01T04:16:15.867Z,82.83
2017-01-01T04:17:22.031Z,83.11
2017-01-01T04:18:25.104Z,83.11
2017-01-01T04:19:30.276Z,82.73
2017-01-01T04:20:36.435Z,82.73
2017-01-01T04:21:41.635Z,83.11
2017-01-01T04:22:47.818Z,82.26
2017-01-01T04:23:53.006Z,83.11
2017-01-01T04:24:59.183Z,83.21
2017-01-01T04:26:05.345Z,82.73
2017-01-01T04:27:11.605Z,82.54
2017-01-01T04:28:16.807Z,83.02
2017-01-01T04:29:21.044Z,83.21
2017-01-01T04:30:23.329Z,83.21
2017-01-01T04:31:27.566Z,83.21
2017-01-01T04:32:33.744Z,82.92
2017-01-01T04:33:36.996Z,83.3
2017-01-01T04:34:41.239Z,83.11
2017-01-01T04:35:47.400Z,83.21
2017-01-01T04:36:52.590Z,83.59
2017-01-01T04:37:58.760Z,83.49
2017-01-01T04:39:04.967Z,83.78
2017-01-01T04:40:10.127Z,83.59
2017-01-01T04:41:15.324Z,83.3
2017-01-01T04:42:21.538Z,83.78
2017-01-01T04:43:26.656Z,83.97
2017-01-01T04:44:31.859Z,83.97
2017-01-01T04:45:36.068Z,84.81
2017-01-01T04:46:42.238Z,84.72
2017-01-01T04:47:47.433Z,85.1
2017-01-01T04:48:53.593Z,85.66
2017-01-01T04:49:59.756Z,85.38
2017-01-01T04:51:02.994Z,86.04
2017-01-01T04:52:08.188Z,86.52
2017-01-01T04:53:12.382Z,86.23
2017-01-01T04:54:16.687Z,86.33
2017-01-01T04:55:21.888Z,86.04
2017-01-01T04:56:27.079Z,86.61
2017-01-01T04:57:32.309Z,86.8
2017-01-01T04:58:37.472Z,85.95
2017-01-01T04:59:42.665Z,86.42
2017-01-01T05:00:46.893Z,86.14
2017-01-01T05:01:53.053Z,86.33
2017-01-01T05:02:59.265Z,86.42
2017-01-01T05:04:04.448Z,86.23
2017-01-01T05:05:10.612Z,86.61
2017-01-01T05:06:16.815Z,86.99
2017-01-01T05:08:26.203Z,86.61
2017-01-01T05:09:32.367Z,86.61
2017-01-01T05:10:37.567Z,86.14
2017-01-01T05:11:41.763Z,86.04
2017-01-01T05:12:47.968Z,86.42
2017-01-01T05:13:53.162Z,86.14
2017-01-01T05:14:58.330Z,86.14
2017-01-01T05:16:04.529Z,86.33
2017-01-01T05:17:10.693Z,86.14
2017-01-01T05:18:14.927Z,86.99
2017-01-01T05:19:21.098Z,86.42
2017-01-01T05:20:27.276Z,86.8
2017-01-01T05:21:33.444Z,86.8
2017-01-01T05:22:37.050Z,86.61
2017-01-01T05:23:42.247Z,86.61
2017-01-01T05:24:47.439Z,87.18
2017-01-01T05:25:51.642Z,86.8
2017-01-01T05:26:57.799Z,87.27
2017-01-01T05:28:03.002Z,87.55
2017-01-01T05:29:08.167Z,87.46
2017-01-01T05:30:12.376Z,87.55
2017-01-01T05:31:18.537Z,87.55
2017-01-01T05:32:24.780Z,87.46
2017-01-01T05:33:29.972Z,87.84
2017-01-01T05:34:34.221Z,87.65
2017-01-01T05:35:39.377Z,87.65
2017-01-01T05:36:45.534Z,87.93
2017-01-01T05:37:49.765Z,87.84
2017-01-01T05:38:54.964Z,87.74
2017-01-01T05:40:00.172Z,88.12
2017-01-01T05:41:06.330Z,88.41
2017-01-01T05:42:11.525Z,88.5
2017-01-01T05:43:16.840Z,88.5
2017-01-01T05:44:22.064Z,88.98
2017-01-01T05:45:27.316Z,88.79
2017-01-01T05:46:32.515Z,89.36
2017-01-01T05:47:37.741Z,89.45
2017-01-01T05:48:42.936Z,89.54
2017-01-01T05:49:49.132Z,89.07
2017-01-01T05:50:53.358Z,89.45
2017-01-01T05:51:59.542Z,90.3
2017-01-01T05:53:04.776Z,89.73
2017-01-01T05:54:10.055Z,89.92
2017-01-01T05:55:15.247Z,90.39
2017-01-01T05:56:20.443Z,90.11
2017-01-01T05:57:25.609Z,90.58
2017-01-01T05:58:31.778Z,90.68
2017-01-01T05:59:37.013Z,90.86
2017-01-01T06:00:43.177Z,90.68
2017-01-01T06:01:46.486Z,90.58
2017-01-01T06:02:51.678Z,90.49
2017-01-01T06:03:57.847Z,90.58
2017-01-01T06:05:02.038Z,90.77
2017-01-01T06:06:06.273Z,90.68
2017-01-01T06:07:12.440Z,90.39
2017-01-01T06:08:17.765Z,90.3
2017-01-01T06:09:23.918Z,90.49
2017-01-01T06:10:30.079Z,90.3
2017-01-01T06:11:35.261Z,90.49
2017-01-01T06:12:41.455Z,90.77
2017-01-01T06:13:45.645Z,89.92
2017-01-01T06:14:48.885Z,90.11
2017-01-01T06:15:54.074Z,90.39
2017-01-01T06:16:58.304Z,90.49
2017-01-01T06:18:04.472Z,90.11
2017-01-01T06:19:10.626Z,89.92
2017-01-01T06:20:16.824Z,90.58
2017-01-01T06:21:22.952Z,90.49
2017-01-01T06:22:29.113Z,90.68
2017-01-01T06:23:35.298Z,90.58
2017-01-01T06:24:39.514Z,90.58
2017-01-01T06:25:43.744Z,90.91
2017-01-01T06:26:49.056Z,91.34
2017-01-01T06:27:55.216Z,91.15
2017-01-01T06:29:00.409Z,91.29
2017-01-01T06:30:05.614Z,91.24
2017-01-01T06:31:08.839Z,91.15
2017-01-01T06:32:15.002Z,90.96
2017-01-01T06:33:20.348Z,90.96
2017-01-01T06:34:26.548Z,90.96
2017-01-01T06:35:31.736Z,91.05
2017-01-01T06:36:37.899Z,90.96
2017-01-01T06:37:43.093Z,91.24
2017-01-01T06:38:46.375Z,91.15
2017-01-01T06:39:49.634Z,91.05
2017-01-01T06:40:55.838Z,91.05
2017-01-01T06:42:00.963Z,91.05
2017-01-01T06:43:07.145Z,91.24
2017-01-01T06:44:13.375Z,91.15
2017-01-01T06:45:19.536Z,91.53
2017-01-01T06:46:24.814Z,90.39
2017-01-01T06:47:31.030Z,90.49
2017-01-01T06:48:36.301Z,91.43
2017-01-01T06:49:40.737Z,91.15
2017-01-01T06:50:44.936Z,91.24
2017-01-01T06:51:49.167Z,91.43
2017-01-01T06:52:54.391Z,91.24
2017-01-01T06:54:00.551Z,90.96
2017-01-01T06:55:04.774Z,90.96
2017-01-01T06:56:10.957Z,90.49
2017-01-01T06:57:17.110Z,91.15
2017-01-01T06:58:21.308Z,91.34
2017-01-01T06:59:25.749Z,91.05
2017-01-01T07:00:30.939Z,90.96
2017-01-01T07:01:37.149Z,91.43
2017-01-01T07:02:41.456Z,91.43
2017-01-01T07:03:46.660Z,90.96
2017-01-01T07:04:51.926Z,91.34
2017-01-01T07:05:56.158Z,91.15
2017-01-01T07:07:01.344Z,91.53
2017-01-01T07:08:07.504Z,91.62
2017-01-01T07:09:12.782Z,91.24
2017-01-01T07:10:18.942Z,91.34
2017-01-01T07:11:25.100Z,91.53
2017-01-01T07:12:31.260Z,91.62
2017-01-01T07:13:37.473Z,91.24
2017-01-01T07:14:42.676Z,91.53
2017-01-01T07:15:48.833Z,91.43
2017-01-01T07:16:54.997Z,91.24
2017-01-01T07:18:01.160Z,91.43
2017-01-01T07:19:07.324Z,92.38
2017-01-01T07:20:13.482Z,92.19
2017-01-01T07:21:18.649Z,92.1
2017-01-01T07:22:22.845Z,92
2017-01-01T07:23:29.010Z,92
2017-01-01T07:24:34.204Z,91.91
2017-01-01T07:25:40.360Z,92.1
2017-01-01T07:26:45.563Z,92.1
2017-01-01T07:27:49.791Z,92
2017-01-01T07:28:54.980Z,92.1
2017-01-01T07:30:01.144Z,91.91
2017-01-01T07:31:05.376Z,92.29
2017-01-01T07:32:11.535Z,92.38
2017-01-01T07:33:15.855Z,92.38
2017-01-01T07:34:20.164Z,92.94
2017-01-01T07:35:25.336Z,92.66
2017-01-01T07:36:31.490Z,93.13
2017-01-01T07:37:37.652Z,93.13
2017-01-01T07:38:42.845Z,93.04
2017-01-01T07:39:48.041Z,93.13
2017-01-01T07:40:53.239Z,93.32
2017-01-01T07:41:57.420Z,93.23
2017-01-01T07:43:01.653Z,93.04
2017-01-01T07:44:06.837Z,93.23
2017-01-01T07:45:12.027Z,93.04
2017-01-01T07:46:16.258Z,93.23
2017-01-01T07:47:21.436Z,93.32
2017-01-01T07:48:26.020Z,92.47
2017-01-01T07:49:32.181Z,92.47
2017-01-01T07:51:44.524Z,92.66
2017-01-01T07:52:49.786Z,92.66
2017-01-01T07:53:54.004Z,92.66
2017-01-01T07:55:00.167Z,92.47
2017-01-01T07:56:04.397Z,92.57
2017-01-01T07:57:08.626Z,92.38
2017-01-01T07:58:12.821Z,92.57
2017-01-01T07:59:19.057Z,92.47
2017-01-01T08:00:23.302Z,92.57
2017-01-01T08:01:28.493Z,92.38
2017-01-01T08:02:32.722Z,92.76
2017-01-01T08:03:37.925Z,92.1
2017-01-01T08:04:43.094Z,92.1
2017-01-01T08:05:49.286Z,91.62
2017-01-01T08:06:54.474Z,92
2017-01-01T08:07:59.666Z,91.72
2017-01-01T08:09:05.829Z,91.15
2017-01-01T08:10:10.049Z,91.39
2017-01-01T08:11:14.258Z,91.15
2017-01-01T08:12:20.419Z,91.2
2017-01-01T08:13:26.586Z,91.2
2017-01-01T08:14:29.851Z,91.34
2017-01-01T08:15:34.140Z,90.53
2017-01-01T08:16:39.589Z,90.58
2017-01-01T08:17:45.832Z,90.77
2017-01-01T08:18:50.995Z,90.72
2017-01-01T08:19:57.159Z,90.34
2017-01-01T08:21:03.329Z,90.63
2017-01-01T08:22:09.588Z,90.53
2017-01-01T08:23:15.761Z,90.16
2017-01-01T08:24:21.929Z,90.34
2017-01-01T08:25:28.091Z,90.34
2017-01-01T08:26:33.283Z,89.97
2017-01-01T08:27:39.462Z,90.06
2017-01-01T08:28:43.694Z,90.06
2017-01-01T08:29:49.846Z,90.16
2017-01-01T08:30:53.113Z,90.06
2017-01-01T08:31:57.346Z,90.25
2017-01-01T08:33:03.507Z,90.25
2017-01-01T08:34:08.715Z,89.4
2017-01-01T08:35:12.970Z,89.02
2017-01-01T08:36:19.127Z,89.21
2017-01-01T08:37:24.353Z,89.21
2017-01-01T08:38:29.549Z,89.31
2017-01-01T08:39:33.785Z,89.31
2017-01-01T08:40:39.948Z,89.12
2017-01-01T08:41:44.147Z,88.64
2017-01-01T08:42:49.347Z,89.12
2017-01-01T08:43:54.556Z,88.64
2017-01-01T08:45:00.708Z,88.74
2017-01-01T08:46:05.905Z,88.83
2017-01-01T08:47:12.073Z,88.93
2017-01-01T08:48:17.280Z,88.45
2017-01-01T08:49:21.514Z,88.55
2017-01-01T08:50:27.730Z,88.07
2017-01-01T08:51:32.893Z,88.17
2017-01-01T08:52:39.063Z,87.98
2017-01-01T08:53:44.269Z,87.7
2017-01-01T08:54:46.532Z,87.51
2017-01-01T08:55:51.770Z,87.6
2017-01-01T08:56:55.932Z,87.13
2017-01-01T08:58:01.130Z,86.6
2017-01-01T08:59:06.330Z,86.22
2017-01-01T09:00:12.492Z,86.32
2017-01-01T09:01:17.707Z,85.57
2017-01-01T09:02:23.923Z,85.85
2017-01-01T09:03:29.055Z,85.57
2017-01-01T09:04:35.230Z,85.19
2017-01-01T09:05:41.406Z,85.19
2017-01-01T09:06:46.597Z,85
2017-01-01T09:07:51.795Z,84.52
2017-01-01T09:08:57.978Z,84.14
2017-01-01T09:10:04.125Z,83.67
2017-01-01T09:11:09.318Z,83.58
2017-01-01T09:12:13.543Z,83.48
2017-01-01T09:13:19.848Z,83.95
2017-01-01T09:14:26.018Z,83.39
2017-01-01T09:15:31.215Z,82.82
2017-01-01T09:16:35.413Z,83.1
2017-01-01T09:17:40.611Z,83.39
2017-01-01T09:18:46.901Z,82.82
2017-01-01T09:19:52.104Z,82.06
2017-01-01T09:20:58.263Z,82.1
2017-01-01T09:22:03.464Z,82.72
2017-01-01T09:23:08.658Z,82.63
2017-01-01T09:24:12.868Z,82.82
2017-01-01T09:25:19.036Z,82.82
2017-01-01T09:26:25.254Z,81.96
2017-01-01T09:27:27.511Z,82.25
2017-01-01T09:28:33.669Z,82.15
2017-01-01T09:29:37.895Z,82.25
2017-01-01T09:30:43.080Z,82.2
2017-01-01T09:31:48.952Z,81.92
2017-01-01T09:32:55.113Z,81.34
2017-01-01T09:34:00.303Z,81.34
2017-01-01T09:35:04.533Z,81.25
2017-01-01T09:36:08.741Z,81.53
2017-01-01T09:37:14.908Z,80.96
2017-01-01T09:38:19.145Z,80.96
2017-01-01T09:39:25.306Z,81.06
2017-01-01T09:40:29.528Z,80.3
2017-01-01T09:41:34.724Z,80.58
2017-01-01T09:42:39.927Z,80.58
2017-01-01T09:43:44.167Z,80.21
2017-01-01T09:44:48.484Z,79.83
2017-01-01T09:45:54.760Z,79.83
2017-01-01T09:47:00.923Z,80.02
2017-01-01T09:48:07.092Z,79.83
2017-01-01T09:49:12.326Z,80.02
2017-01-01T09:50:18.466Z,79.36
2017-01-01T09:51:22.673Z,79.17
2017-01-01T09:52:28.897Z,78.88
2017-01-01T09:53:34.158Z,78.88
2017-01-01T09:54:40.327Z,78.98
2017-01-01T09:55:45.524Z,79.36
2017-01-01T09:56:50.815Z,79.17
2017-01-01T09:57:55.042Z,79.07
2017-01-01T09:58:59.271Z,79.36
2017-01-01T10:00:05.433Z,78.69
2017-01-01T10:01:10.631Z,79.07
2017-01-01T10:02:15.828Z,78.98
2017-01-01T10:03:21.027Z,78.79
2017-01-01T10:04:27.187Z,80.02
2017-01-01T10:05:31.408Z,79.36
2017-01-01T10:06:36.675Z,79.36
2017-01-01T10:07:42.003Z,78.98
2017-01-01T10:08:47.167Z,78.98
2017-01-01T10:09:52.364Z,79.17
2017-01-01T10:10:57.532Z,80.02
2017-01-01T10:12:03.704Z,79.93
2017-01-01T10:13:08.893Z,79.55
2017-01-01T10:14:13.136Z,79.93
2017-01-01T10:15:19.298Z,79.83
2017-01-01T10:16:25.467Z,79.55
2017-01-01T10:17:31.637Z,79.83
2017-01-01T10:18:37.869Z,80.11
2017-01-01T10:19:43.065Z,80.49
2017-01-01T10:20:49.223Z,80.87
2017-01-01T10:21:55.395Z,80.68
2017-01-01T10:23:00.598Z,80.87
2017-01-01T10:24:04.829Z,80.02
2017-01-01T10:25:10.128Z,80.21
2017-01-01T10:26:14.496Z,80.96
2017-01-01T10:27:20.657Z,80.77
2017-01-01T10:28:26.918Z,80.11
2017-01-01T10:29:32.082Z,80.4
2017-01-01T10:30:36.281Z,80.4
2017-01-01T10:31:41.531Z,80.4
2017-01-01T10:32:46.694Z,80.21
2017-01-01T10:33:52.864Z,80.3
2017-01-01T10:34:58.406Z,80.58
2017-01-01T10:36:03.576Z,80.77
2017-01-01T10:37:07.908Z,80.44
2017-01-01T10:38:13.007Z,81.01
2017-01-01T10:39:19.181Z,80.25
2017-01-01T10:40:25.339Z,80.15
2017-01-01T10:41:27.607Z,80.63
2017-01-01T10:42:33.777Z,80.63
2017-01-01T10:43:37.983Z,80.72
2017-01-01T10:44:42.203Z,80.53
2017-01-01T10:45:47.405Z,80.44
2017-01-01T10:46:52.620Z,80.34
2017-01-01T10:47:58.790Z,80.25
2017-01-01T10:49:04.043Z,80.91
2017-01-01T10:50:08.232Z,80.72
2017-01-01T10:51:13.401Z,80.72
2017-01-01T10:52:18.618Z,80.63
2017-01-01T10:53:23.825Z,80.06
2017-01-01T10:54:30.043Z,80.34
2017-01-01T10:55:36.243Z,80.53
2017-01-01T10:56:41.428Z,80.63
2017-01-01T10:57:47.622Z,80.82
2017-01-01T10:58:52.792Z,80.68
2017-01-01T10:59:58.013Z,80.68
2017-01-01T11:01:03.212Z,81.01
2017-01-01T11:02:07.417Z,80.82
2017-01-01T11:03:13.579Z,80.72
2017-01-01T11:04:18.777Z,80.63
2017-01-01T11:05:23.976Z,80.72
2017-01-01T11:06:28.238Z,80.72
2017-01-01T11:07:34.431Z,80.53
2017-01-01T11:08:40.679Z,81.01
2017-01-01T11:09:44.923Z,80.15
2017-01-01T11:10:50.122Z,80.53
2017-01-01T11:11:54.386Z,80.15
2017-01-01T11:12:59.552Z,80.82
2017-01-01T11:14:04.766Z,80.63
2017-01-01T11:15:08.966Z,80.72
2017-01-01T11:16:14.165Z,80.72
2017-01-01T11:17:19.356Z,81.48
2017-01-01T11:18:24.295Z,81.48
2017-01-01T11:19:29.547Z,82.24
2017-01-01T11:20:34.726Z,81.38
2017-01-01T11:21:38.620Z,82.05
2017-01-01T11:22:44.789Z,82.24
2017-01-01T11:23:50.959Z,81.76
2017-01-01T11:24:56.153Z,81.67
2017-01-01T11:26:02.317Z,81.48
2017-01-01T11:27:08.489Z,80.82
2017-01-01T11:28:14.648Z,81.1
2017-01-01T11:29:20.818Z,80.53
2017-01-01T11:30:27.015Z,80.63
2017-01-01T11:31:33.152Z,80.25
2017-01-01T11:32:39.333Z,79.96
2017-01-01T11:33:44.525Z,79.96
2017-01-01T11:34:50.701Z,79.68
2017-01-01T11:35:55.928Z,79.87
2017-01-01T11:36:59.135Z,80.25
2017-01-01T11:38:04.301Z,79.02
2017-01-01T11:39:10.470Z,79.11
2017-01-01T11:40:15.651Z,79.02
2017-01-01T11:41:21.821Z,79.15
2017-01-01T11:42:27.023Z,78.96
2017-01-01T11:43:33.197Z,78.87
2017-01-01T11:44:38.398Z,78.3
2017-01-01T11:45:44.566Z,78.3
2017-01-01T11:46:49.769Z,77.92
2017-01-01T11:47:54.960Z,78.02
2017-01-01T11:49:00.209Z,77.83
2017-01-01T11:50:05.361Z,77.54
2017-01-01T11:51:10.561Z,77.73
2017-01-01T11:52:15.755Z,77.45
2017-01-01T11:53:21.931Z,77.83
2017-01-01T11:54:28.108Z,77.16
2017-01-01T11:55:34.272Z,76.59
2017-01-01T11:56:37.534Z,76.78
2017-01-01T11:57:41.798Z,76.87
2017-01-01T11:58:47.945Z,77.16
2017-01-01T11:59:54.115Z,76.97
2017-01-01T12:00:58.414Z,77.16
2017-01-01T12:02:03.610Z,76.4
2017-01-01T12:03:08.790Z,76.4
2017-01-01T12:04:14.972Z,76.68
2017-01-01T12:05:20.172Z,76.87
2017-01-01T12:06:25.393Z,76.87
2017-01-01T12:07:31.557Z,76.97
2017-01-01T12:08:37.776Z,76.31
2017-01-01T12:09:42.931Z,76.5
2017-01-01T12:10:48.139Z,76.87
2017-01-01T12:11:53.330Z,77.73
2017-01-01T12:12:58.570Z,77.69
2017-01-01T12:14:04.787Z,78.45
2017-01-01T12:15:11.061Z,78.45
2017-01-01T12:16:15.293Z,78.45
2017-01-01T12:17:21.457Z,78.64
2017-01-01T12:18:27.625Z,78.73
2017-01-01T12:19:33.805Z,78.73
2017-01-01T12:20:39.980Z,78.26
2017-01-01T12:21:46.160Z,78.64
2017-01-01T12:22:52.315Z,78.83
2017-01-01T12:23:58.480Z,79.02
2017-01-01T12:25:03.703Z,78.64
2017-01-01T12:26:09.871Z,78.26
2017-01-01T12:27:14.250Z,78.35
2017-01-01T12:28:20.422Z,78.45
2017-01-01T12:29:26.192Z,78.35
2017-01-01T12:30:31.395Z,77.78
2017-01-01T12:31:35.767Z,78.45
2017-01-01T12:32:40.034Z,78.64
2017-01-01T12:33:45.214Z,78.35
2017-01-01T12:34:51.411Z,77.97
2017-01-01T12:35:57.580Z,77.97
2017-01-01T12:37:02.743Z,76.65
2017-01-01T12:38:06.994Z,75.98
2017-01-01T12:39:13.154Z,76.08
2017-01-01T12:40:17.538Z,76.27
2017-01-01T12:41:20.803Z,76.55
2017-01-01T12:42:26.004Z,75.42
2017-01-01T12:43:32.168Z,74.95
2017-01-01T12:44:36.369Z,74.85
2017-01-01T12:45:39.644Z,74.56
2017-01-01T12:46:45.797Z,73.52
2017-01-01T12:47:50.988Z,73.14
2017-01-01T12:48:57.159Z,71.53
2017-01-01T12:50:02.410Z,70.45
2017-01-01T12:51:06.637Z,70.11
2017-01-01T12:52:12.802Z,69.17
2017-01-01T12:53:19.006Z,68.08
2017-01-01T12:54:24.215Z,67.08
2017-01-01T12:55:29.396Z,66.57
2017-01-01T12:56:34.597Z,66.09
2017-01-01T12:57:40.843Z,65.44
2017-01-01T12:58:47.011Z,64.96
2017-01-01T12:59:52.261Z,64.49
2017-01-01T13:00:57.444Z,64.77
2017-01-01T13:02:02.680Z,63.92
2017-01-01T13:03:05.909Z,64.49
2017-01-01T13:04:12.084Z,64.96
2017-01-01T13:05:16.313Z,64.11
2017-01-01T13:06:21.547Z,62.97
2017-01-01T13:07:27.691Z,62.97
2017-01-01T13:08:32.880Z,62.88
2017-01-01T13:09:39.086Z,63.16
2017-01-01T13:10:44.222Z,63.26
2017-01-01T13:11:50.387Z,62.97
2017-01-01T13:12:56.567Z,63.16
2017-01-01T13:14:01.766Z,63.07
2017-01-01T13:15:06.969Z,63.82
2017-01-01T13:16:12.166Z,63.16
2017-01-01T13:17:17.330Z,62.5
2017-01-01T13:18:23.515Z,63.26
2017-01-01T13:19:29.717Z,62.97
2017-01-01T13:20:35.953Z,63.73
2017-01-01T13:21:41.120Z,62.69
2017-01-01T13:22:46.322Z,63.16
2017-01-01T13:23:51.533Z,63.07
2017-01-01T13:24:57.760Z,62.5
2017-01-01T13:26:03.939Z,62.21
2017-01-01T13:27:08.202Z,62.4
2017-01-01T13:28:14.448Z,62.02
2017-01-01T13:29:19.026Z,62.02
2017-01-01T13:30:25.208Z,62.5
2017-01-01T13:31:31.390Z,62.59
2017-01-01T13:32:35.633Z,62.5
2017-01-01T13:33:41.799Z,62.12
2017-01-01T13:34:46.022Z,62.02
2017-01-01T13:35:52.187Z,62.59
2017-01-01T13:36:58.427Z,62.12
2017-01-01T13:38:01.721Z,61.93
2017-01-01T13:39:06.889Z,62.21
2017-01-01T13:40:10.161Z,62.21
2017-01-01T13:41:15.358Z,62.02
2017-01-01T13:42:20.567Z,63.16
2017-01-01T13:43:25.791Z,62.5
2017-01-01T13:44:32.050Z,62.78
2017-01-01T13:45:37.245Z,62.5
2017-01-01T13:46:43.422Z,62.59
2017-01-01T13:47:46.658Z,62.4
2017-01-01T13:48:52.819Z,62.31
2017-01-01T13:49:56.807Z,62.88
2017-01-01T13:51:01.980Z,62.5
2017-01-01T13:52:08.142Z,62.88
2017-01-01T13:53:14.357Z,64.11
2017-01-01T13:54:20.525Z,64.11
2017-01-01T13:55:25.731Z,63.64
2017-01-01T13:56:31.903Z,64.11
2017-01-01T13:57:36.107Z,63.54
2017-01-01T13:58:41.312Z,64.11
2017-01-01T13:59:46.513Z,64.49
2017-01-01T14:00:50.869Z,64.58
2017-01-01T14:01:56.431Z,64.58
2017-01-01T14:03:00.660Z,64.39
2017-01-01T14:04:05.883Z,64.87
2017-01-01T14:05:10.126Z,65.06
2017-01-01T14:06:16.320Z,65.44
2017-01-01T14:07:22.455Z,65.44
2017-01-01T14:08:25.785Z,65.31